Don's Testing Zone


Current Conditions
weather data
source:

National Weather Service
Light Thunderstorms Little Rock, AR
Light Thunderstorms
Sunday, October 22, 2017 4:34 AM CDT
Temperature: 59°F/15°C
Humidity: 100%
Barometer: 29.99in/1014.2mb Barometer Steady
Wind: W at 13mph/20kmh, G:23mph
View other cities:
Searcy | Little Rock | Hot Springs | Russellville | More...
Astronomical Conditions (Clear Sky Clock)
Searcy Clear Sky Clock
    

Radar Images

NWS
    Wx Underground

NWS METAR weather data

ADDS - METARS form results





Aviation Digital Data Service (ADDS) Output produced by METARs form (0945 UTC 22 October 2017) found at http://www.aviationweather.gov/adds/metars/ 

KLIT 220934Z 30011G20KT 4SM -TSRA SCT017 OVC040CB 15/15 A2999 RMK AO2 PK WND28035/0906 WSHFT 0854 LTG DSNT ALQDS TSB11 OCNL LTGICCG NE-SE-OHD TS NE-SE-OHDMOV E P0038 T01500150 $

KLIT 220921Z COR 31018G27KT 2SM TSRA SQ SCT010 BKN017 OVC040CB 15/15 A3001 RMKAO2 PK WND 28035/0906 WSHFT 0854 OCN LTGIC DSNT SW-N TSB11 OCNL ALQS TS ALQDSMOV E P0031 T01500150 $

KLIT 220914Z 29015G35KT 2SM TSRA SQ SCT010 BKN017 OVC040CB 16/16 A3002 RMK AO2PK WND 28035/0906 WSHFT 0854 LTG DSNT SW-N TSB11 OCNL LTG SW-NW TS SW-NW MOV EP0012 T01610156 $

KLIT 220911Z 29016G35KT 3SM -TSRA SQ SCT010 BKN017 OVC040CB 17/16 A3003 RMK AO2PK WND 28035/0906 WSHFT 0854 LTG DSNT SW-N TSB11 PRESRR OCNL LTG SW-NW TS SW-NWMOV E P0004 T01670156 $

KLIT 220908Z 28026G35KT 7SM -RA BKN017 OVC040CB 20/19 A3001 RMK AO2 PK WND28035/0906 WSHFT 0854 LTG DSNT SW-N PRESRR OCNL LTG SW-NW LN CB SW-NW MOV EWSHFT07 P0000 T02000189 $

KLIT 220853Z 20010KT 10SM -RA BKN017 OVC040 22/22 A2995 RMK AO2 LTG DSNT W-NRAB0757 SLP142 OCNL LTG DSNT SW-NW LN CB DSNT SW-NW MOV E P0001 60001 T0222021753004 $

KLIT 220758Z 17010KT 10SM -RA BKN017 OVC040 23/22 A2994 RMK AO2 LTG DSNT NWRAB57 OCNL LTG DSNT NW CB DSNT NW MOV E P0000 T02330217 $

KLIT 220753Z 18010G22KT 10SM BKN017 OVC040 23/22 A2994 RMK AO2 SLP138 T02330217$

KLIT 220653Z 17012G19KT 10SM OVC017 23/22 A2994 RMK AO2 SLP136 T02330217 $

KLIT 220553Z 17013G21KT 10SM OVC019 23/21 A2994 RMK AO2 PRESFR SLP137 BINOVC60000 T02330211 10239 20222 402720139 58012 $

KLIT 220517Z 17009KT 10SM BKN020 BKN060 23/21 A2997 RMK AO2 T02280211 $

KLIT 220453Z 17007KT 10SM FEW030 BKN060 22/21 A2998 RMK AO2 SLP153 T02220206 $

KLIT 220353Z 15012KT 10SM SCT035 BKN055 22/21 A2997 RMK AO2 SLP148 T02220206 $

KLIT 220253Z 14011KT 10SM FEW045 BKN060 23/21 A2997 RMK AO2 SLP149 60000T02280206 58001 $

KLIT 220153Z 15009KT 10SM SCT040 BKN055 23/21 A2997 RMK AO2 RAB0058E19 SLP150P0000 T02330206 $

KLIT 220053Z 12005KT 10SM BKN040 OVC055 23/21 A3000 RMK AO2 SLP157 BINOVCT02330211 $

KLIT 212353Z 16003KT 10SM SCT045 BKN055 BKN250 23/21 A2997 RMK AO2 SLP150 60004T02330211 10272 20233 55005 $

KLIT 212253Z 17004KT 10SM SCT035 BKN045 BKN250 25/22 A2997 RMK AO2 SLP148T02500217 $

KLIT 212153Z 00000KT 10SM FEW030TCU SCT050 BKN250 26/22 A2997 RMK AO2 RAE03SLP148 TCU N P0000 T02610222 $

KLIT 212053Z 15005KT 10SM -RA SCT025TCU BKN050 BKN200 24/23 A2999 RMK AO2 LTGDSNT NE RAB40 SLP155 TCU N-NE P0004 60004 T02440228 56014 $

KLIT 211953Z 19008KT 10SM BKN033 BKN100 OVC200 26/22 A3000 RMK AO2 RAB20E37SLP158 CB DSNT NW-NE MOV NE CIG RGD OCNL BINOVC P0000 T02560217 $

KLIT 211910Z 21009KT 10SM OVC033 26/21 A3000 RMK AO2 CIG RGD OCNL BINOVCT02610206 $

KLIT 211853Z 19011KT 10SM OVC028 26/21 A3001 RMK AO2 SLP162 CIG RGD OCNL BINOVCT02560206 $

KLIT 211753Z 20009KT 10SM OVC025 26/21 A3003 RMK AO2 SLP169 OCNL BINOVCT02560211 10256 20167 58008 $

KLIT 211653Z 18007KT 10SM OVC022 24/21 A3005 RMK AO2 SLP176 T02440206 $

KLIT 211553Z 17009KT 10SM OVC018 24/20 A3006 RMK AO2 SLP178 BINOVC T02390200 $

KLIT 211453Z 16010G16KT 10SM BKN015 OVC100 22/19 A3005 RMK AO2 SLP179 BINOVCT02220189 55001

KLIT 211429Z 16012G19KT 10SM BKN020 OVC100 21/18 A3006 RMK AO2 T02110183

KLIT 211353Z 15010KT 10SM SCT020 BKN100 21/18 A3005 RMK AO2 SLP178 T02060178

KLIT 211319Z 14010KT 10SM SCT025 BKN100 BKN250 19/17 A3005 RMK AO2 SCT V BKNT01890172

KLIT 211253Z 14009KT 10SM BKN025 OVC100 18/17 A3006 RMK AO2 SLP179 BINOVCT01830167

KLIT 211207Z 12004KT 10SM BKN025 OVC100 17/16 A3006 RMK AO2 BINOVC T01720161

KLIT 211153Z 08003KT 10SM FEW045 OVC110 17/16 A3006 RMK AO2 SLP180 BINOVCT01720156 10178 20139 53009

KLIT 211053Z 00000KT 10SM FEW040 BKN120 17/16 A3005 RMK AO2 SLP176 T01720156

KLIT 210953Z 14005KT 10SM SCT040 BKN120 17/15 A3003 RMK AO2 SLP170 T01670150